Assembly, North Carolina
Current Conditions -  °F | °C
As of 6:54 PM on Sunday 25 Jan 2015 (Local Time) from KAVL Reporting Station
Overcast Overcast  
Wind Chill:   Ceiling: 9500
Heat Index:   Visibility: 10mi
Dew Point: -2°   Wind: 14mph
Humidity: 51%   Direction: 190°S
Pressure: 29.74"   Gusts: NA
Location:  35.5251°N, 82.9723°W
Report Text: KAVL 252354Z 19012KT 10SM OVC095 08/M02 A2974 RMK AO2 SLP075 T00781017 10128 20078 51009
Loading
Personal Weather Stations






























Interactive Weather Map New forecast layout! Learn more

10-Day Weather Forecast

Advertisements
Track Severe Weather on mobile